createdAt,value
2022-08-29T00:00:54.684Z,17.60
2022-08-29T00:03:23.184Z,17.60
2022-08-29T00:05:51.498Z,17.60
2022-08-29T00:08:21.621Z,17.50
2022-08-29T00:10:49.850Z,17.60
2022-08-29T00:13:18.461Z,17.50
2022-08-29T00:15:46.881Z,17.50
2022-08-29T00:18:19.160Z,17.50
2022-08-29T00:20:48.915Z,17.70
2022-08-29T00:23:17.306Z,17.50
2022-08-29T00:25:47.119Z,17.60
2022-08-29T00:28:15.684Z,17.30
2022-08-29T00:30:44.601Z,17.30
2022-08-29T00:33:15.519Z,17.30
2022-08-29T00:35:47.373Z,17.30
2022-08-29T00:38:19.228Z,17.30
2022-08-29T00:40:56.626Z,17.20
2022-08-29T00:43:28.079Z,17.20
2022-08-29T00:46:06.623Z,17.20
2022-08-29T00:48:36.836Z,17.20
2022-08-29T00:51:09.022Z,17.10
2022-08-29T00:53:42.591Z,17.10
2022-08-29T00:56:15.938Z,17.10
2022-08-29T00:58:50.596Z,17.10
2022-08-29T01:01:19.380Z,17.00
2022-08-29T01:03:48.378Z,17.10
2022-08-29T01:06:16.960Z,17.00
2022-08-29T01:08:48.412Z,17.00
2022-08-29T01:11:52.235Z,17.00
2022-08-29T01:14:22.404Z,17.00
2022-08-29T01:16:53.520Z,17.00
2022-08-29T01:19:40.380Z,17.10
2022-08-29T01:22:20.013Z,17.00
2022-08-29T01:24:52.360Z,17.00
2022-08-29T01:27:23.275Z,17.00
2022-08-29T01:29:51.459Z,17.10
2022-08-29T01:32:23.572Z,17.00
2022-08-29T01:34:51.888Z,17.00
2022-08-29T01:37:22.294Z,17.00
2022-08-29T01:39:51.804Z,17.00
2022-08-29T01:42:21.890Z,17.00
2022-08-29T01:44:54.862Z,17.00
2022-08-29T01:47:27.093Z,17.00
2022-08-29T01:49:55.539Z,16.90
2022-08-29T01:52:23.936Z,16.90
2022-08-29T01:54:54.113Z,16.70
2022-08-29T01:57:22.779Z,16.90
2022-08-29T01:59:51.822Z,16.90
2022-08-29T02:02:23.113Z,16.80
2022-08-29T02:04:52.020Z,16.80
2022-08-29T02:07:25.005Z,16.80
2022-08-29T02:09:55.044Z,16.80
2022-08-29T02:12:24.669Z,16.80
2022-08-29T02:14:53.087Z,16.80
2022-08-29T02:17:23.925Z,16.80
2022-08-29T02:19:52.236Z,16.90
2022-08-29T02:22:21.466Z,16.80
2022-08-29T02:24:49.751Z,16.80
2022-08-29T02:27:19.668Z,16.70
2022-08-29T02:29:48.062Z,16.70
2022-08-29T02:32:16.587Z,16.70
2022-08-29T02:34:48.665Z,16.60
2022-08-29T02:37:17.825Z,16.60
2022-08-29T02:39:46.116Z,16.60
2022-08-29T02:42:16.498Z,16.50
2022-08-29T02:44:46.318Z,16.50
2022-08-29T02:47:14.397Z,16.50
2022-08-29T02:49:42.651Z,16.40
2022-08-29T02:52:11.231Z,16.40
2022-08-29T02:54:41.717Z,16.50
2022-08-29T02:57:09.986Z,16.40
2022-08-29T02:59:38.332Z,16.30
2022-08-29T03:02:08.412Z,16.30
2022-08-29T03:04:36.893Z,16.30
2022-08-29T03:07:06.536Z,16.30
2022-08-29T03:09:35.094Z,16.20
2022-08-29T03:12:03.576Z,16.20
2022-08-29T03:14:31.826Z,16.20
2022-08-29T03:17:00.109Z,16.10
2022-08-29T03:19:29.827Z,16.10
2022-08-29T03:21:57.991Z,16.10
2022-08-29T03:24:27.212Z,16.10
2022-08-29T03:26:56.288Z,16.00
2022-08-29T03:29:27.721Z,16.00
2022-08-29T03:31:58.389Z,16.00
2022-08-29T03:34:27.447Z,16.00
2022-08-29T03:36:57.410Z,15.90
2022-08-29T03:39:25.663Z,15.90
2022-08-29T03:41:54.117Z,15.90
2022-08-29T03:44:22.609Z,15.80
2022-08-29T03:46:53.297Z,15.80
2022-08-29T03:49:21.929Z,15.60
2022-08-29T03:51:50.302Z,15.80
2022-08-29T03:54:20.135Z,15.80
2022-08-29T03:56:48.850Z,15.90
2022-08-29T03:59:17.729Z,15.70
2022-08-29T04:01:48.074Z,15.70
2022-08-29T04:04:34.722Z,15.80
2022-08-29T04:07:03.079Z,15.60
2022-08-29T04:09:34.832Z,15.50
2022-08-29T04:12:02.923Z,15.50
2022-08-29T04:14:33.577Z,15.50
2022-08-29T04:17:04.276Z,15.50
2022-08-29T04:19:33.292Z,15.40
2022-08-29T04:22:01.718Z,15.40
2022-08-29T04:24:32.229Z,15.40
2022-08-29T04:27:01.819Z,15.40
2022-08-29T04:29:30.028Z,15.40
2022-08-29T04:31:58.192Z,15.40
2022-08-29T04:34:26.476Z,15.40
2022-08-29T04:36:54.670Z,15.40
2022-08-29T04:39:23.501Z,15.40
2022-08-29T04:41:54.031Z,15.40
2022-08-29T04:44:23.524Z,15.40
2022-08-29T04:46:51.682Z,15.40
2022-08-29T04:49:21.573Z,15.40
2022-08-29T04:51:53.921Z,15.40
2022-08-29T04:54:24.546Z,15.40
2022-08-29T04:56:52.902Z,15.50
2022-08-29T04:59:27.230Z,15.50
2022-08-29T05:01:56.605Z,15.50
2022-08-29T05:04:26.998Z,15.50
2022-08-29T05:06:55.203Z,15.60
2022-08-29T05:09:23.351Z,15.60
2022-08-29T05:11:51.583Z,15.60
2022-08-29T05:14:19.984Z,15.70
2022-08-29T05:16:49.592Z,15.70
2022-08-29T05:19:18.235Z,15.80
2022-08-29T05:21:46.471Z,15.90
2022-08-29T05:24:19.823Z,15.90
2022-08-29T05:26:48.063Z,16.00
2022-08-29T05:29:16.293Z,16.10
2022-08-29T05:31:45.805Z,16.20
2022-08-29T05:34:34.456Z,16.30
2022-08-29T05:37:05.014Z,16.30
2022-08-29T05:39:33.882Z,16.40
2022-08-29T05:42:02.559Z,16.50
2022-08-29T05:44:35.160Z,16.50
2022-08-29T05:47:04.636Z,16.60
2022-08-29T05:49:35.942Z,16.60
2022-08-29T05:52:04.945Z,16.70
2022-08-29T05:54:36.359Z,16.80
2022-08-29T05:57:04.881Z,16.80
2022-08-29T05:59:32.979Z,16.90
2022-08-29T06:02:01.080Z,17.20
2022-08-29T06:04:29.437Z,17.00
2022-08-29T06:07:04.568Z,17.20
2022-08-29T06:09:33.280Z,17.20
2022-08-29T06:12:01.683Z,17.20
2022-08-29T06:14:31.869Z,17.30
2022-08-29T06:17:02.884Z,17.40
2022-08-29T06:19:34.855Z,17.40
2022-08-29T06:22:09.686Z,17.50
2022-08-29T06:24:39.845Z,17.60
2022-08-29T06:27:10.145Z,17.70
2022-08-29T06:29:44.031Z,17.80
2022-08-29T06:32:12.446Z,17.50
2022-08-29T06:34:40.613Z,17.90
2022-08-29T06:37:10.569Z,17.90
2022-08-29T06:39:38.998Z,18.00
2022-08-29T06:42:14.706Z,18.00
2022-08-29T06:44:44.750Z,18.10
2022-08-29T06:47:20.913Z,18.40
2022-08-29T06:49:56.480Z,18.30
2022-08-29T06:52:27.800Z,18.40
2022-08-29T06:55:23.935Z,18.40
2022-08-29T07:28:23.163Z,19.00
2022-08-29T07:40:08.984Z,19.20
2022-08-29T07:45:40.452Z,19.30
2022-08-29T07:48:22.926Z,19.40
2022-08-29T08:06:17.345Z,19.70
2022-08-29T08:12:08.154Z,19.90
2022-08-29T08:17:55.507Z,20.00
2022-08-29T08:23:21.242Z,20.10
2022-08-29T08:28:50.045Z,20.10
2022-08-29T08:31:21.989Z,20.30
2022-08-29T08:34:05.876Z,20.30
2022-08-29T08:39:34.778Z,20.40
2022-08-29T08:42:15.956Z,20.60
2022-08-29T08:51:20.694Z,21.00
2022-08-29T08:53:58.327Z,20.90
2022-08-29T08:59:40.428Z,21.00
2022-08-29T09:02:23.396Z,21.00
2022-08-29T09:05:34.612Z,21.00
2022-08-29T09:08:37.954Z,21.10
2022-08-29T09:12:04.881Z,21.20
2022-08-29T09:19:27.213Z,21.50
2022-08-29T09:27:51.429Z,21.60
2022-08-29T09:30:27.447Z,21.60
2022-08-29T09:33:18.316Z,21.70
2022-08-29T09:39:55.007Z,21.80
2022-08-29T09:42:29.084Z,21.90
2022-08-29T09:45:02.156Z,22.00
2022-08-29T09:47:32.318Z,22.10
2022-08-29T09:50:13.842Z,22.40
2022-08-29T09:52:59.519Z,22.20
2022-08-29T09:55:32.515Z,22.20
2022-08-29T09:58:05.430Z,22.30
2022-08-29T10:00:40.059Z,22.20
2022-08-29T10:03:13.832Z,22.30
2022-08-29T10:09:12.002Z,22.50
2022-08-29T10:11:47.591Z,22.50
2022-08-29T10:14:23.845Z,22.60
2022-08-29T10:17:21.479Z,22.60
2022-08-29T10:19:54.670Z,22.70
2022-08-29T10:22:30.665Z,22.70
2022-08-29T10:25:06.235Z,22.80
2022-08-29T10:27:42.984Z,22.80
2022-08-29T10:30:15.383Z,22.90
2022-08-29T10:33:09.598Z,22.90
2022-08-29T10:35:41.599Z,22.90
2022-08-29T10:38:23.939Z,23.00
2022-08-29T10:40:59.869Z,23.10
2022-08-29T10:43:41.260Z,23.10
2022-08-29T10:46:34.552Z,23.30
2022-08-29T10:49:13.920Z,23.30
2022-08-29T10:51:54.058Z,23.40
2022-08-29T10:54:32.972Z,23.50
2022-08-29T10:57:05.972Z,23.60
2022-08-29T10:59:42.829Z,23.60
2022-08-29T11:02:18.563Z,23.60
2022-08-29T11:04:51.865Z,23.60
2022-08-29T11:07:24.326Z,23.60
2022-08-29T11:09:58.959Z,23.60
2022-08-29T11:12:45.051Z,23.60
2022-08-29T11:15:21.522Z,23.60
2022-08-29T11:17:57.481Z,23.70
2022-08-29T11:20:33.671Z,23.70
2022-08-29T11:23:07.546Z,23.70
2022-08-29T11:25:41.960Z,23.80
2022-08-29T11:28:23.318Z,23.90
2022-08-29T11:30:58.377Z,24.00
2022-08-29T11:33:40.864Z,24.40
2022-08-29T11:36:26.554Z,25.00
2022-08-29T11:39:33.694Z,26.10
2022-08-29T11:42:06.920Z,27.40
2022-08-29T11:44:45.275Z,28.60
2022-08-29T11:47:47.113Z,29.40
2022-08-29T11:50:24.297Z,30.30
2022-08-29T11:52:57.939Z,31.00
2022-08-29T11:55:35.799Z,31.40
2022-08-29T11:58:29.981Z,32.00
2022-08-29T12:01:01.167Z,32.70
2022-08-29T12:03:57.155Z,34.00
2022-08-29T12:06:46.199Z,35.00
2022-08-29T12:09:47.741Z,35.80
2022-08-29T12:12:37.496Z,36.60
2022-08-29T12:15:47.913Z,36.90
2022-08-29T12:18:39.402Z,36.90
2022-08-29T12:21:48.659Z,37.10
2022-08-29T12:24:43.424Z,37.00
2022-08-29T12:27:26.831Z,36.80
2022-08-29T12:29:55.789Z,37.30
2022-08-29T12:32:46.465Z,37.80
2022-08-29T12:35:50.879Z,37.80
2022-08-29T12:38:31.325Z,37.50
2022-08-29T12:41:10.227Z,37.00
2022-08-29T12:43:44.735Z,36.80
2022-08-29T12:46:24.388Z,36.90
2022-08-29T12:48:59.043Z,37.10
2022-08-29T12:51:42.596Z,37.00
2022-08-29T12:54:14.832Z,37.00
2022-08-29T12:56:51.693Z,36.90
2022-08-29T12:59:25.225Z,36.60
2022-08-29T13:02:01.696Z,36.70
2022-08-29T13:04:45.636Z,37.10
2022-08-29T13:13:06.612Z,38.00
2022-08-29T13:18:31.366Z,37.80
2022-08-29T13:21:24.005Z,37.40
2022-08-29T13:24:18.946Z,37.00
2022-08-29T13:29:47.045Z,36.70
2022-08-29T13:32:33.635Z,36.70
2022-08-29T13:35:09.680Z,36.90
2022-08-29T13:37:55.959Z,36.20
2022-08-29T13:47:06.824Z,34.60
2022-08-29T13:49:56.420Z,34.10
2022-08-29T13:52:31.425Z,33.70
2022-08-29T13:55:00.914Z,33.60
2022-08-29T13:57:51.482Z,33.40
2022-08-29T14:00:35.967Z,33.30
2022-08-29T14:20:02.295Z,32.50
2022-08-29T14:22:54.198Z,32.40
2022-08-29T14:25:32.106Z,32.70
2022-08-29T14:28:10.108Z,32.90
2022-08-29T16:10:12.393Z,37.60
2022-08-29T16:12:43.038Z,37.70
2022-08-29T16:15:13.925Z,37.70
2022-08-29T16:17:43.026Z,37.80
2022-08-29T16:20:12.189Z,37.60
2022-08-29T16:22:42.316Z,37.50
2022-08-29T16:25:14.689Z,37.50
2022-08-29T16:27:42.955Z,37.40
2022-08-29T16:30:12.106Z,37.20
2022-08-29T16:32:40.522Z,37.10
2022-08-29T16:35:11.136Z,36.90
2022-08-29T16:37:39.362Z,36.50
2022-08-29T16:40:09.761Z,36.10
2022-08-29T16:42:55.306Z,35.70
2022-08-29T16:45:24.247Z,35.60
2022-08-29T16:47:57.230Z,35.50
2022-08-29T16:50:26.214Z,35.20
2022-08-29T16:52:56.753Z,34.80
2022-08-29T16:55:25.307Z,34.60
2022-08-29T16:58:12.795Z,34.40
2022-08-29T17:04:07.304Z,33.90
2022-08-29T17:06:49.053Z,33.40
2022-08-29T17:09:34.025Z,32.90
2022-08-29T17:12:04.860Z,32.30
2022-08-29T17:14:45.879Z,31.80
2022-08-29T17:17:33.372Z,31.30
2022-08-29T17:20:04.471Z,30.80
2022-08-29T17:22:34.945Z,30.20
2022-08-29T17:25:03.234Z,30.10
2022-08-29T17:27:38.888Z,29.60
2022-08-29T17:30:12.442Z,29.40
2022-08-29T17:33:01.243Z,29.00
2022-08-29T17:35:31.884Z,28.70
2022-08-29T17:38:00.208Z,28.30
2022-08-29T17:40:29.719Z,28.00
2022-08-29T17:43:06.558Z,27.80
2022-08-29T17:45:38.791Z,27.50
2022-08-29T18:03:38.355Z,25.90
2022-08-29T18:06:07.801Z,25.50
2022-08-29T18:08:39.475Z,25.30
2022-08-29T18:15:35.578Z,24.90
2022-08-29T18:18:09.935Z,24.70
2022-08-29T18:25:22.695Z,24.40
2022-08-29T18:32:13.743Z,24.00
2022-08-29T18:41:31.522Z,23.40
2022-08-29T19:16:48.622Z,21.70
2022-08-29T19:19:17.352Z,21.70
2022-08-29T19:21:45.049Z,21.60
2022-08-29T19:27:11.344Z,21.50
2022-08-29T20:49:45.057Z,19.80
2022-08-29T20:58:34.581Z,19.50
2022-08-29T21:01:11.647Z,19.50
2022-08-29T21:04:21.085Z,19.40
2022-08-29T21:07:18.651Z,19.40
2022-08-29T21:09:51.812Z,19.40
2022-08-29T21:12:25.870Z,19.30
2022-08-29T21:15:03.562Z,19.20
2022-08-29T21:17:35.331Z,19.20
2022-08-29T21:20:04.012Z,19.20
2022-08-29T21:22:40.029Z,19.10
2022-08-29T21:25:22.489Z,19.10
2022-08-29T21:28:18.000Z,19.00
2022-08-29T21:30:48.127Z,19.00
2022-08-29T21:33:21.262Z,18.90
2022-08-29T21:36:01.820Z,18.90
2022-08-29T21:38:35.812Z,18.90
2022-08-29T21:41:04.650Z,18.90
2022-08-29T21:43:38.164Z,18.80
2022-08-29T21:46:15.437Z,18.80
2022-08-29T21:58:57.012Z,18.60
2022-08-29T22:10:36.488Z,18.40
2022-08-29T22:13:10.168Z,18.40
2022-08-29T22:15:56.409Z,18.30
2022-08-29T22:18:29.850Z,18.20
2022-08-29T22:21:06.912Z,18.20
2022-08-29T22:23:37.880Z,18.40
2022-08-29T22:26:12.256Z,18.10
2022-08-29T22:28:47.550Z,18.10
2022-08-29T22:31:22.774Z,18.10
2022-08-29T22:33:55.046Z,18.00
2022-08-29T22:36:26.755Z,18.00
2022-08-29T22:39:06.397Z,17.90
2022-08-29T22:41:54.095Z,17.90
2022-08-29T22:47:47.886Z,17.80
2022-08-29T22:50:26.076Z,17.80
2022-08-29T22:53:20.347Z,17.80
2022-08-29T22:56:26.277Z,17.80
2022-08-29T23:01:46.901Z,17.70
2022-08-29T23:04:21.202Z,17.70
2022-08-29T23:06:49.625Z,17.70
2022-08-29T23:14:12.472Z,17.70
2022-08-29T23:19:51.578Z,17.40
2022-08-29T23:22:22.657Z,17.50
2022-08-29T23:24:54.778Z,17.40
2022-08-29T23:27:27.714Z,17.50
2022-08-29T23:30:00.679Z,17.40
2022-08-29T23:32:31.106Z,17.40
2022-08-29T23:34:59.728Z,17.40
2022-08-29T23:37:30.202Z,17.30
2022-08-29T23:40:01.496Z,17.30
2022-08-29T23:42:30.676Z,17.30
2022-08-29T23:45:03.648Z,17.30
2022-08-29T23:47:36.130Z,17.30
2022-08-29T23:50:05.004Z,17.20
2022-08-29T23:52:33.227Z,17.20
2022-08-29T23:55:03.620Z,17.10
2022-08-29T23:57:44.343Z,17.10
